createdAt,value
2019-05-04T00:00:40.600Z,6.20
2019-05-04T00:03:09.274Z,7.50
2019-05-04T00:05:39.473Z,8.20
2019-05-04T00:08:09.752Z,6.43
2019-05-04T00:10:38.416Z,10.50
2019-05-04T00:13:07.127Z,9.30
2019-05-04T00:15:35.907Z,9.10
2019-05-04T00:18:04.734Z,9.57
2019-05-04T00:20:34.738Z,8.17
2019-05-04T00:23:05.548Z,10.37
2019-05-04T00:25:37.644Z,9.90
2019-05-04T00:28:06.260Z,8.70
2019-05-04T00:30:35.144Z,8.87
2019-05-04T00:33:05.659Z,7.87
2019-05-04T00:35:55.050Z,8.53
2019-05-04T00:38:24.832Z,7.77
2019-05-04T00:40:55.570Z,8.83
2019-05-04T00:43:24.978Z,9.07
2019-05-04T00:45:54.640Z,8.47
2019-05-04T00:48:25.389Z,7.90
2019-05-04T00:50:56.424Z,9.37
2019-05-04T00:53:25.051Z,6.27
2019-05-04T00:56:10.478Z,7.17
2019-05-04T00:58:45.083Z,8.07
2019-05-04T01:01:18.382Z,8.23
2019-05-04T01:03:47.009Z,6.57
2019-05-04T01:06:15.642Z,9.97
2019-05-04T01:08:44.577Z,8.27
2019-05-04T01:11:14.785Z,8.43
2019-05-04T01:13:44.945Z,7.80
2019-05-04T01:16:16.906Z,6.30
2019-05-04T01:18:48.327Z,8.53
2019-05-04T01:21:17.031Z,7.60
2019-05-04T01:23:46.144Z,9.10
2019-05-04T01:26:15.375Z,8.80
2019-05-04T01:28:45.171Z,7.07
2019-05-04T01:31:14.944Z,5.90
2019-05-04T01:34:05.202Z,6.63
2019-05-04T01:36:38.570Z,7.30
2019-05-04T01:39:30.620Z,7.63
2019-05-04T01:42:04.872Z,6.50
2019-05-04T01:44:36.199Z,5.63
2019-05-04T01:47:08.218Z,8.03
2019-05-04T01:49:36.863Z,6.10
2019-05-04T01:52:06.491Z,6.37
2019-05-04T01:54:36.426Z,6.20
2019-05-04T01:57:15.703Z,3.07
2019-05-04T01:59:59.788Z,7.37
2019-05-04T02:02:29.979Z,5.63
2019-05-04T02:04:58.615Z,2.77
2019-05-04T02:07:42.816Z,2.73
2019-05-04T02:10:01.187Z,4.07
2019-05-04T02:12:30.340Z,3.60
2019-05-04T02:15:05.279Z,5.10
2019-05-04T02:17:34.902Z,4.07
2019-05-04T02:20:08.981Z,6.57
2019-05-04T02:22:39.379Z,5.27
2019-05-04T02:25:26.366Z,2.93
2019-05-04T02:27:56.631Z,3.60
2019-05-04T02:30:32.932Z,3.77
2019-05-04T02:33:02.823Z,3.37
2019-05-04T02:35:31.457Z,4.97
2019-05-04T02:38:09.093Z,6.07
2019-05-04T02:40:48.832Z,4.30
2019-05-04T02:43:05.904Z,5.80
2019-05-04T02:45:36.856Z,5.67
2019-05-04T02:48:07.214Z,6.17
2019-05-04T02:50:38.360Z,5.17
2019-05-04T02:53:06.919Z,4.23
2019-05-04T02:55:36.388Z,5.13
2019-05-04T02:58:05.910Z,3.00
2019-05-04T03:00:36.691Z,2.90
2019-05-04T03:03:07.678Z,3.00
2019-05-04T03:05:36.277Z,2.17
2019-05-04T03:08:25.747Z,1.33
2019-05-04T03:10:41.238Z,1.30
2019-05-04T03:13:09.936Z,1.23
2019-05-04T03:15:38.635Z,1.30
2019-05-04T03:18:08.964Z,1.93
2019-05-04T03:20:41.911Z,1.20
2019-05-04T03:23:14.792Z,1.80
2019-05-04T03:25:42.464Z,1.60
2019-05-04T03:28:11.254Z,1.83
2019-05-04T03:30:41.533Z,2.90
2019-05-04T03:33:10.194Z,1.63
2019-05-04T03:35:50.100Z,3.67
2019-05-04T03:38:09.157Z,2.70
2019-05-04T03:40:37.751Z,3.23
2019-05-04T03:43:09.626Z,4.27
2019-05-04T03:45:47.787Z,4.20
2019-05-04T03:48:36.247Z,2.27
2019-05-04T03:51:06.951Z,1.93
2019-05-04T03:53:41.800Z,3.83
2019-05-04T03:56:10.501Z,2.60
2019-05-04T03:58:39.451Z,3.33
2019-05-04T04:01:08.132Z,2.10
2019-05-04T04:03:36.785Z,2.50
2019-05-04T04:06:06.593Z,1.63
2019-05-04T04:08:35.911Z,2.33
2019-05-04T04:11:05.685Z,2.53
2019-05-04T04:13:36.447Z,1.60
2019-05-04T04:16:08.878Z,2.07
2019-05-04T04:18:37.490Z,4.53
2019-05-04T04:21:06.217Z,3.77
2019-05-04T04:23:36.386Z,3.30
2019-05-04T04:26:25.907Z,2.83
2019-05-04T04:28:55.715Z,4.93
2019-05-04T04:31:26.166Z,4.83
2019-05-04T04:34:00.708Z,6.87
2019-05-04T04:36:26.026Z,3.30
2019-05-04T04:38:56.638Z,3.10
2019-05-04T04:41:26.105Z,2.63
2019-05-04T04:43:56.237Z,8.07
2019-05-04T04:46:25.762Z,4.97
2019-05-04T04:48:55.656Z,3.37
2019-05-04T04:51:26.444Z,8.30
2019-05-04T04:53:56.195Z,4.47
2019-05-04T04:56:27.040Z,3.87
2019-05-04T04:59:05.965Z,4.53
2019-05-04T05:01:35.889Z,10.40
2019-05-04T05:04:05.976Z,3.97
2019-05-04T05:06:35.325Z,4.47
2019-05-04T05:09:06.637Z,5.07
2019-05-04T05:11:35.952Z,4.43
2019-05-04T05:14:05.695Z,3.93
2019-05-04T05:16:34.414Z,9.37
2019-05-04T05:19:04.628Z,6.17
2019-05-04T05:21:34.554Z,3.10
2019-05-04T05:24:04.586Z,4.57
2019-05-04T05:26:35.086Z,4.93
2019-05-04T05:29:04.685Z,6.33
2019-05-04T05:32:17.719Z,2.87
2019-05-04T05:34:48.029Z,5.80
2019-05-04T05:37:16.784Z,3.73
2019-05-04T05:39:57.629Z,5.60
2019-05-04T05:42:18.703Z,4.20
2019-05-04T05:44:46.106Z,4.93
2019-05-04T05:47:19.447Z,4.63
2019-05-04T05:49:55.862Z,5.40
2019-05-04T05:52:31.253Z,3.40
2019-05-04T05:55:04.996Z,4.57
2019-05-04T05:57:57.884Z,1.87
2019-05-04T06:00:28.807Z,2.53
2019-05-04T06:03:15.371Z,8.73
2019-05-04T06:05:51.753Z,6.53
2019-05-04T06:08:25.030Z,2.23
2019-05-04T06:10:56.669Z,5.80
2019-05-04T06:13:40.692Z,6.77
2019-05-04T06:16:26.339Z,3.30
2019-05-04T06:18:59.391Z,3.27
2019-05-04T06:21:35.034Z,9.23
2019-05-04T06:24:24.468Z,4.97
2019-05-04T06:27:08.510Z,10.40
2019-05-04T06:29:46.430Z,3.63
2019-05-04T06:32:24.946Z,5.83
2019-05-04T06:34:55.705Z,3.47
2019-05-04T06:37:28.894Z,8.60
2019-05-04T06:40:17.238Z,5.37
2019-05-04T06:43:01.836Z,3.10
2019-05-04T06:45:49.423Z,4.63
2019-05-04T06:48:30.801Z,7.40
2019-05-04T06:51:05.323Z,4.53
2019-05-04T06:53:51.494Z,8.23
2019-05-04T06:56:26.474Z,4.40
2019-05-04T06:59:00.965Z,6.90
2019-05-04T07:01:26.978Z,5.50
2019-05-04T07:04:05.478Z,6.10
2019-05-04T07:06:39.422Z,8.53
2019-05-04T07:09:08.517Z,3.83
2019-05-04T07:12:04.209Z,6.13
2019-05-04T07:14:15.102Z,5.80
2019-05-04T07:16:45.506Z,6.13
2019-05-04T07:19:19.033Z,5.33
2019-05-04T07:21:49.680Z,4.43
2019-05-04T07:24:15.963Z,8.20
2019-05-04T07:26:45.243Z,3.40
2019-05-04T07:29:18.808Z,5.87
2019-05-04T07:31:49.474Z,6.87
2019-05-04T07:34:16.612Z,9.30
2019-05-04T07:36:54.886Z,6.00
2019-05-04T07:39:36.617Z,7.87
2019-05-04T07:42:29.308Z,6.90
2019-05-04T07:45:00.534Z,4.30
2019-05-04T07:47:34.087Z,7.53
2019-05-04T07:50:04.969Z,7.37
2019-05-04T07:52:35.255Z,6.13
2019-05-04T07:55:08.281Z,8.57
2019-05-04T07:57:39.806Z,9.97
2019-05-04T08:00:10.206Z,14.83
2019-05-04T08:02:47.287Z,7.77
2019-05-04T08:05:25.999Z,5.87
2019-05-04T08:07:44.668Z,9.23
2019-05-04T08:10:15.578Z,6.50
2019-05-04T08:12:56.158Z,7.43
2019-05-04T08:15:16.916Z,8.57
2019-05-04T08:17:51.909Z,14.03
2019-05-04T08:20:26.988Z,10.97
2019-05-04T08:23:01.116Z,9.13
2019-05-04T08:25:29.548Z,8.87
2019-05-04T08:27:58.253Z,11.33
2019-05-04T08:30:31.360Z,8.27
2019-05-04T08:33:07.187Z,11.93
2019-05-04T08:35:38.914Z,5.80
2019-05-04T08:38:11.310Z,9.07
2019-05-04T08:40:38.429Z,11.03
2019-05-04T08:43:16.030Z,5.17
2019-05-04T08:45:37.577Z,7.83
2019-05-04T08:48:11.288Z,7.77
2019-05-04T08:50:46.015Z,8.17
2019-05-04T08:53:12.035Z,11.50
2019-05-04T08:55:44.441Z,8.77
2019-05-04T08:58:28.855Z,7.60
2019-05-04T09:00:55.790Z,9.80
2019-05-04T09:03:26.288Z,14.03
2019-05-04T09:06:13.022Z,10.03
2019-05-04T09:08:34.293Z,9.67
2019-05-04T09:11:13.409Z,7.17
2019-05-04T09:13:44.642Z,7.87
2019-05-04T09:16:10.787Z,8.80
2019-05-04T09:18:39.945Z,11.57
2019-05-04T09:21:10.460Z,11.30
2019-05-04T09:23:44.202Z,9.53
2019-05-04T09:26:15.405Z,6.70
2019-05-04T09:28:50.822Z,8.33
2019-05-04T09:31:14.851Z,8.20
2019-05-04T09:33:45.912Z,6.80
2019-05-04T09:36:15.597Z,7.40
2019-05-04T09:38:44.861Z,9.90
2019-05-04T09:41:35.091Z,7.60
2019-05-04T09:44:09.346Z,10.37
2019-05-04T09:46:40.053Z,9.67
2019-05-04T09:49:07.355Z,8.10
2019-05-04T09:51:37.819Z,6.57
2019-05-04T09:54:09.786Z,9.20
2019-05-04T09:56:39.281Z,6.83
2019-05-04T09:59:08.346Z,10.53
2019-05-04T10:01:38.945Z,11.27
2019-05-04T10:04:08.218Z,6.60
2019-05-04T10:06:41.287Z,5.90
2019-05-04T10:09:10.200Z,9.43
2019-05-04T10:11:45.039Z,8.63
2019-05-04T10:14:21.988Z,8.80
2019-05-04T10:17:14.246Z,4.80
2019-05-04T10:19:49.158Z,8.00
2019-05-04T10:22:19.477Z,5.80
2019-05-04T10:24:54.474Z,6.37
2019-05-04T10:27:35.274Z,6.93
2019-05-04T10:30:07.961Z,10.13
2019-05-04T10:32:37.185Z,4.30
2019-05-04T10:35:06.898Z,5.80
2019-05-04T10:37:36.886Z,4.35
2019-05-04T10:40:06.930Z,8.68
2019-05-04T10:42:38.805Z,5.45
2019-05-04T10:45:08.295Z,4.22
2019-05-04T10:47:37.225Z,4.05
2019-05-04T10:50:09.992Z,7.55
2019-05-04T10:52:38.693Z,4.85
2019-05-04T10:55:14.244Z,4.12
2019-05-04T10:57:40.256Z,6.30
2019-05-04T11:00:11.906Z,4.67
2019-05-04T11:02:42.497Z,3.87
2019-05-04T11:05:17.439Z,6.33
2019-05-04T11:07:50.647Z,6.80
2019-05-04T11:10:20.248Z,3.92
2019-05-04T11:12:49.013Z,4.40
2019-05-04T11:15:17.944Z,2.30
2019-05-04T11:17:46.579Z,1.35
2019-05-04T11:20:18.193Z,1.03
2019-05-04T11:22:48.365Z,2.60
2019-05-04T11:25:27.232Z,1.30
2019-05-04T11:28:09.628Z,1.92
2019-05-04T11:30:38.571Z,11.48
2019-05-04T11:33:10.490Z,1.60
2019-05-04T11:35:41.898Z,6.15
2019-05-04T11:38:09.639Z,2.80
2019-05-04T11:40:45.190Z,2.22
2019-05-04T11:43:28.354Z,2.45
2019-05-04T11:46:02.909Z,2.02
2019-05-04T11:48:40.424Z,2.98
2019-05-04T11:51:14.488Z,6.80
2019-05-04T11:53:48.818Z,2.57
2019-05-04T11:56:18.201Z,7.73
2019-05-04T11:58:48.296Z,4.50
2019-05-04T12:01:16.967Z,3.93
2019-05-04T12:03:45.696Z,3.40
2019-05-04T12:06:17.541Z,2.97
2019-05-04T12:08:51.256Z,3.17
2019-05-04T12:11:20.401Z,6.90
2019-05-04T12:13:53.355Z,4.43
2019-05-04T12:16:22.208Z,5.60
2019-05-04T12:18:57.216Z,4.60
2019-05-04T12:21:27.105Z,3.50
2019-05-04T12:23:57.360Z,2.93
2019-05-04T12:26:27.576Z,3.20
2019-05-04T12:28:57.907Z,4.87
2019-05-04T12:31:26.604Z,2.07
2019-05-04T12:33:55.377Z,2.40
2019-05-04T12:36:28.389Z,3.40
2019-05-04T12:39:03.003Z,4.17
2019-05-04T12:41:31.729Z,0.83
2019-05-04T12:44:02.382Z,1.33
2019-05-04T12:46:34.376Z,0.93
2019-05-04T12:49:17.314Z,2.03
2019-05-04T12:51:45.889Z,5.17
2019-05-04T12:54:19.670Z,2.80
2019-05-04T12:56:48.395Z,7.03
2019-05-04T12:59:21.641Z,5.23
2019-05-04T13:01:54.372Z,5.73
2019-05-04T13:04:24.377Z,3.93
2019-05-04T13:06:55.344Z,3.03
2019-05-04T13:09:29.612Z,3.63
2019-05-04T13:11:58.318Z,2.80
2019-05-04T13:14:28.686Z,4.07
2019-05-04T13:17:00.513Z,5.17
2019-05-04T13:19:29.367Z,3.77
2019-05-04T13:21:58.249Z,4.80
2019-05-04T13:24:26.952Z,6.50
2019-05-04T13:26:55.523Z,3.97
2019-05-04T13:29:24.833Z,4.23
2019-05-04T13:31:54.983Z,3.30
2019-05-04T13:34:26.468Z,4.10
2019-05-04T13:37:01.807Z,1.17
2019-05-04T13:39:30.504Z,2.37
2019-05-04T13:42:01.837Z,3.40
2019-05-04T13:44:36.644Z,3.27
2019-05-04T13:47:05.446Z,3.63
2019-05-04T13:49:37.619Z,3.13
2019-05-04T13:52:09.793Z,3.30
2019-05-04T13:54:40.151Z,3.83
2019-05-04T13:57:22.511Z,3.73
2019-05-04T13:59:55.549Z,4.13
2019-05-04T14:02:44.924Z,8.07
2019-05-04T14:05:14.291Z,3.67
2019-05-04T14:07:45.021Z,4.30
2019-05-04T14:10:16.513Z,6.23
2019-05-04T14:12:48.189Z,15.23
2019-05-04T14:15:28.952Z,4.83
2019-05-04T14:17:51.334Z,8.60
2019-05-04T14:20:28.266Z,7.23
2019-05-04T14:22:58.897Z,4.03
2019-05-04T14:25:27.737Z,2.60
2019-05-04T14:27:56.527Z,3.83
2019-05-04T14:30:28.397Z,5.23
2019-05-04T14:33:01.706Z,5.07
2019-05-04T14:35:30.362Z,5.63
2019-05-04T14:38:07.731Z,2.87
2019-05-04T14:40:36.698Z,3.60
2019-05-04T14:43:16.275Z,4.53
2019-05-04T14:46:04.824Z,4.93
2019-05-04T14:48:38.011Z,4.90
2019-05-04T14:51:09.773Z,4.47
2019-05-04T14:53:38.795Z,3.23
2019-05-04T14:56:07.636Z,2.93
2019-05-04T14:58:42.245Z,5.73
2019-05-04T15:01:11.179Z,4.37
2019-05-04T15:03:39.863Z,2.50
2019-05-04T15:06:14.958Z,3.43
2019-05-04T15:08:45.642Z,4.33
2019-05-04T15:11:14.661Z,6.13
2019-05-04T15:13:44.953Z,3.27
2019-05-04T15:16:16.697Z,4.47
2019-05-04T15:18:51.691Z,3.63
2019-05-04T15:21:20.507Z,4.40
2019-05-04T15:23:54.519Z,4.17
2019-05-04T15:26:26.714Z,7.43
2019-05-04T15:28:58.416Z,7.27
2019-05-04T15:31:37.081Z,3.43
2019-05-04T15:34:10.642Z,5.73
2019-05-04T15:36:50.842Z,6.40
2019-05-04T15:39:19.607Z,1.87
2019-05-04T15:41:48.246Z,2.80
2019-05-04T15:44:19.596Z,5.03
2019-05-04T15:46:48.348Z,1.97
2019-05-04T15:49:19.912Z,2.83
2019-05-04T15:52:08.510Z,4.60
2019-05-04T15:54:38.846Z,4.40
2019-05-04T15:57:12.341Z,1.87
2019-05-04T15:59:45.170Z,2.07
2019-05-04T16:02:14.994Z,3.10
2019-05-04T16:04:46.862Z,2.27
2019-05-04T16:07:16.082Z,4.17
2019-05-04T16:09:48.031Z,2.60
2019-05-04T16:12:18.192Z,2.47
2019-05-04T16:14:52.277Z,2.63
2019-05-04T16:17:24.837Z,1.83
2019-05-04T16:19:54.586Z,2.47
2019-05-04T16:22:26.180Z,1.43
2019-05-04T16:24:57.900Z,3.87
2019-05-04T16:27:34.624Z,1.50
2019-05-04T16:30:06.728Z,2.40
2019-05-04T16:32:38.832Z,3.63
2019-05-04T16:35:08.307Z,3.90
2019-05-04T16:37:38.472Z,3.40
2019-05-04T16:40:11.798Z,3.80
2019-05-04T16:42:45.455Z,1.97
2019-05-04T16:45:14.857Z,2.80
2019-05-04T16:47:43.504Z,2.80
2019-05-04T16:50:14.421Z,1.30
2019-05-04T16:52:50.782Z,1.20
2019-05-04T16:55:19.505Z,3.50
2019-05-04T16:57:54.299Z,2.23
2019-05-04T17:00:34.171Z,3.77
2019-05-04T17:03:14.892Z,2.27
2019-05-04T17:05:44.820Z,2.00
2019-05-04T17:08:18.029Z,3.03
2019-05-04T17:10:49.923Z,1.10
2019-05-04T17:13:20.769Z,2.23
2019-05-04T17:15:54.421Z,3.03
2019-05-04T17:18:34.556Z,3.73
2019-05-04T17:21:00.618Z,0.83
2019-05-04T17:23:29.874Z,2.00
2019-05-04T17:26:17.989Z,3.20
2019-05-04T17:28:50.262Z,1.13
2019-05-04T17:31:21.074Z,2.93
2019-05-04T17:33:50.053Z,1.00
2019-05-04T17:36:20.810Z,0.53
2019-05-04T17:38:52.890Z,3.37
2019-05-04T17:41:24.162Z,2.00
2019-05-04T17:44:15.965Z,1.57
2019-05-04T17:46:46.421Z,2.57
2019-05-04T17:49:19.102Z,1.37
2019-05-04T17:51:51.866Z,1.87
2019-05-04T17:54:20.580Z,5.20
2019-05-04T17:56:49.349Z,5.33
2019-05-04T17:59:26.661Z,3.30
2019-05-04T18:02:13.235Z,2.07
2019-05-04T18:04:50.758Z,0.83
2019-05-04T18:07:24.977Z,4.77
2019-05-04T18:09:57.851Z,1.83
2019-05-04T18:12:38.299Z,2.77
2019-05-04T18:15:26.381Z,2.27
2019-05-04T18:18:24.127Z,3.93
2019-05-04T18:20:55.018Z,2.03
2019-05-04T18:23:29.077Z,2.30
2019-05-04T18:26:09.595Z,1.43
2019-05-04T18:28:45.047Z,1.23
2019-05-04T18:31:28.371Z,3.03
2019-05-04T18:34:04.889Z,1.77
2019-05-04T18:36:37.297Z,1.43
2019-05-04T18:39:14.589Z,1.67
2019-05-04T18:42:01.247Z,1.07
2019-05-04T18:44:34.444Z,3.17
2019-05-04T18:47:07.310Z,2.20
2019-05-04T18:49:45.085Z,0.70
2019-05-04T18:52:16.915Z,4.80
2019-05-04T18:54:46.771Z,2.03
2019-05-04T18:57:17.514Z,2.10
2019-05-04T18:59:55.106Z,1.70
2019-05-04T19:02:24.115Z,1.20
2019-05-04T19:04:54.258Z,2.50
2019-05-04T19:07:41.130Z,1.57
2019-05-04T19:10:15.673Z,1.40
2019-05-04T19:12:49.294Z,3.10
2019-05-04T19:15:21.861Z,2.03
2019-05-04T19:17:59.782Z,1.33
2019-05-04T19:20:32.619Z,1.10
2019-05-04T19:23:01.266Z,3.63
2019-05-04T19:25:35.404Z,2.30
2019-05-04T19:28:15.134Z,1.17
2019-05-04T19:30:45.421Z,3.80
2019-05-04T19:33:14.287Z,1.27
2019-05-04T19:35:47.064Z,3.03
2019-05-04T19:38:24.120Z,3.37
2019-05-04T19:41:00.517Z,2.70
2019-05-04T19:43:47.862Z,2.43
2019-05-04T19:46:39.195Z,1.20
2019-05-04T19:49:07.453Z,2.87
2019-05-04T19:51:39.495Z,1.53
2019-05-04T19:54:19.816Z,1.03
2019-05-04T19:56:48.956Z,2.13
2019-05-04T19:59:20.466Z,2.97
2019-05-04T20:01:54.485Z,3.00
2019-05-04T20:04:23.440Z,2.37
2019-05-04T20:07:01.029Z,3.13
2019-05-04T20:09:50.619Z,1.27
2019-05-04T20:12:26.646Z,4.93
2019-05-04T20:15:14.748Z,3.50
2019-05-04T20:17:36.844Z,2.77
2019-05-04T20:20:05.471Z,1.47
2019-05-04T20:22:34.808Z,1.80
2019-05-04T20:25:10.042Z,2.47
2019-05-04T20:27:45.049Z,1.00
2019-05-04T20:30:14.838Z,1.10
2019-05-04T20:35:35.276Z,2.30
2019-05-04T20:38:06.648Z,3.13
2019-05-04T20:40:39.550Z,1.47
2019-05-04T20:43:09.423Z,3.00
2019-05-04T20:45:45.289Z,1.47
2019-05-04T20:48:37.058Z,3.27
2019-05-04T20:51:11.682Z,5.27
2019-05-04T20:53:47.735Z,7.70
2019-05-04T20:56:26.471Z,4.80
2019-05-04T20:59:05.855Z,3.33
2019-05-04T21:01:36.200Z,4.23
2019-05-04T21:04:25.067Z,3.30
2019-05-04T21:06:59.825Z,2.90
2019-05-04T21:09:38.111Z,3.73
2019-05-04T21:12:06.768Z,5.47
2019-05-04T21:14:41.075Z,3.17
2019-05-04T21:17:25.121Z,3.93
2019-05-04T21:19:57.829Z,4.20
2019-05-04T21:22:26.615Z,1.27
2019-05-04T21:25:05.108Z,2.20
2019-05-04T21:27:38.292Z,1.20
2019-05-04T21:30:14.380Z,1.80
2019-05-04T21:32:45.440Z,1.73
2019-05-04T21:35:17.614Z,1.67
2019-05-04T21:38:01.763Z,1.20
2019-05-04T21:40:30.831Z,1.53
2019-05-04T21:42:59.855Z,1.60
2019-05-04T21:45:46.094Z,1.47
2019-05-04T21:48:36.775Z,3.43
2019-05-04T21:51:19.349Z,3.53
2019-05-04T21:53:48.157Z,1.73
2019-05-04T21:56:16.852Z,2.60
2019-05-04T21:58:48.697Z,2.20
2019-05-04T22:01:20.601Z,2.10
2019-05-04T22:03:59.698Z,2.57
2019-05-04T22:06:28.621Z,1.93
2019-05-04T22:08:57.257Z,1.50
2019-05-04T22:11:28.763Z,1.70
2019-05-04T22:14:00.213Z,2.10
2019-05-04T22:16:29.228Z,1.60
2019-05-04T22:18:59.954Z,1.47
2019-05-04T22:21:31.969Z,3.10
2019-05-04T22:24:04.585Z,2.80
2019-05-04T22:26:34.458Z,3.33
2019-05-04T22:29:04.325Z,2.00
2019-05-04T22:31:34.957Z,1.87
2019-05-04T22:34:05.020Z,2.23
2019-05-04T22:36:42.674Z,1.80
2019-05-04T22:39:14.612Z,3.93
2019-05-04T22:41:45.898Z,6.37
2019-05-04T22:44:15.361Z,1.70
2019-05-04T22:46:45.282Z,3.27
2019-05-04T22:49:15.678Z,2.53
2019-05-04T22:51:45.030Z,3.30
2019-05-04T22:54:34.233Z,4.57
2019-05-04T22:57:05.107Z,10.60
2019-05-04T22:59:46.611Z,8.43
2019-05-04T23:02:24.398Z,9.13
2019-05-04T23:04:54.792Z,17.27
2019-05-04T23:07:25.699Z,15.43
2019-05-04T23:09:54.719Z,20.73
2019-05-04T23:12:24.544Z,17.23
2019-05-04T23:14:56.029Z,18.57
2019-05-04T23:17:30.042Z,10.07
2019-05-04T23:19:54.702Z,8.50
2019-05-04T23:22:27.912Z,11.53
2019-05-04T23:24:56.708Z,4.83
2019-05-04T23:27:25.200Z,2.87
2019-05-04T23:29:54.517Z,6.10
2019-05-04T23:32:24.244Z,7.40
2019-05-04T23:34:54.883Z,3.47
2019-05-04T23:37:24.975Z,5.30
2019-05-04T23:39:55.103Z,7.20
2019-05-04T23:42:23.954Z,20.90
2019-05-04T23:44:57.675Z,22.47
2019-05-04T23:47:34.968Z,9.33
2019-05-04T23:50:07.781Z,5.83
2019-05-04T23:52:36.396Z,6.00
2019-05-04T23:55:06.141Z,4.40
2019-05-04T23:57:36.299Z,4.00
